EPKK/KRK METAR and TAF weather

Enter ICAO airport designator
Station Type Date Time Source
EPKK METAR 2020/04/07 17:30 UTC NOAA

EPKK 071730Z 28003KT CAVOK 14/M06 Q1030


Station Type Date Time Source
EPKK Decoded METAR 2020/04/07 17:30 UTC NOAA

Krakow, Poland (EPKK) 50-05N 019-48E 237M
Apr 07, 2020 - 01:30 PM EDT / 2020.04.07 1730 UTC
Wind: from the W (280 degrees) at 3 MPH (3 KT):0
Visibility: greater than 7 mile(s):0
Temperature: 57 F (14 C)
Dew Point: 21 F (-6 C)
Relative Humidity: 24%
Pressure (altimeter): 30.42 in. Hg (1030 hPa)
ob: EPKK 071730Z 28003KT CAVOK 14/M06 Q1030
cycle: 17

Station Type Date Time Source
EPKK TAF 2020/04/07 18:33 UTC NOAA

TAF EPKK 071730Z 0718/0818 24005KT CAVOK

Example: see airport list